sensor_id;sensor_type;location;lat;lon;timestamp;temperature;humidity
9668;DHT22;4872;48.316;10.650;2022-11-22T04:12:02;6.10;99.90
9668;DHT22;4872;48.316;10.650;2022-11-22T04:50:45;6.20;99.90
9668;DHT22;4872;48.316;10.650;2022-11-22T04:53:30;6.20;99.90
9668;DHT22;4872;48.316;10.650;2022-11-22T04:55:57;6.20;99.90
9668;DHT22;4872;48.316;10.650;2022-11-22T04:58:23;6.20;99.90
9668;DHT22;4872;48.316;10.650;2022-11-22T05:00:51;6.20;99.90
9668;DHT22;4872;48.316;10.650;2022-11-22T05:03:17;6.20;99.90
9668;DHT22;4872;48.316;10.650;2022-11-22T05:05:46;6.20;99.90
9668;DHT22;4872;48.316;10.650;2022-11-22T05:08:13;6.20;99.90
9668;DHT22;4872;48.316;10.650;2022-11-22T05:10:40;6.20;99.90
9668;DHT22;4872;48.316;10.650;2022-11-22T05:13:28;6.20;99.90
9668;DHT22;4872;48.316;10.650;2022-11-22T05:15:56;6.20;99.90
9668;DHT22;4872;48.316;10.650;2022-11-22T05:18:24;6.10;99.90
9668;DHT22;4872;48.316;10.650;2022-11-22T05:20:52;6.30;99.90
9668;DHT22;4872;48.316;10.650;2022-11-22T05:23:20;6.20;99.90
9668;DHT22;4872;48.316;10.650;2022-11-22T05:26:05;6.20;99.90
9668;DHT22;4872;48.316;10.650;2022-11-22T05:28:34;6.20;99.90
9668;DHT22;4872;48.316;10.650;2022-11-22T05:31:06;6.20;99.90
9668;DHT22;4872;48.316;10.650;2022-11-22T05:33:35;6.20;99.90
9668;DHT22;4872;48.316;10.650;2022-11-22T05:36:04;6.20;99.90
9668;DHT22;4872;48.316;10.650;2022-11-22T05:38:31;6.20;99.90
9668;DHT22;4872;48.316;10.650;2022-11-22T05:40:59;6.20;99.90
9668;DHT22;4872;48.316;10.650;2022-11-22T05:43:26;6.20;99.90
9668;DHT22;4872;48.316;10.650;2022-11-22T05:45:53;6.20;99.90
9668;DHT22;4872;48.316;10.650;2022-11-22T05:48:20;6.30;99.90
9668;DHT22;4872;48.316;10.650;2022-11-22T05:50:47;6.20;99.90
9668;DHT22;4872;48.316;10.650;2022-11-22T05:53:15;6.30;99.90
9668;DHT22;4872;48.316;10.650;2022-11-22T05:55:42;6.40;99.90
9668;DHT22;4872;48.316;10.650;2022-11-22T05:58:08;6.30;99.90
9668;DHT22;4872;48.316;10.650;2022-11-22T06:00:35;6.30;99.90
9668;DHT22;4872;48.316;10.650;2022-11-22T06:03:03;6.30;99.90
9668;DHT22;4872;48.316;10.650;2022-11-22T06:05:30;6.30;99.90
9668;DHT22;4872;48.316;10.650;2022-11-22T06:07:57;6.30;99.90
9668;DHT22;4872;48.316;10.650;2022-11-22T06:10:27;6.20;99.90
9668;DHT22;4872;48.316;10.650;2022-11-22T06:12:54;6.20;99.90
9668;DHT22;4872;48.316;10.650;2022-11-22T06:15:21;6.20;99.90
9668;DHT22;4872;48.316;10.650;2022-11-22T06:17:48;6.10;99.90
9668;DHT22;4872;48.316;10.650;2022-11-22T06:20:15;6.40;99.90
9668;DHT22;4872;48.316;10.650;2022-11-22T06:22:42;6.20;99.90
9668;DHT22;4872;48.316;10.650;2022-11-22T06:25:09;6.20;99.90
9668;DHT22;4872;48.316;10.650;2022-11-22T06:27:37;6.20;99.90
9668;DHT22;4872;48.316;10.650;2022-11-22T06:30:05;6.20;99.90
9668;DHT22;4872;48.316;10.650;2022-11-22T06:32:32;6.30;99.90
9668;DHT22;4872;48.316;10.650;2022-11-22T06:35:00;6.20;99.90
9668;DHT22;4872;48.316;10.650;2022-11-22T06:37:27;6.20;99.90
9668;DHT22;4872;48.316;10.650;2022-11-22T06:39:54;6.20;99.90
9668;DHT22;4872;48.316;10.650;2022-11-22T06:42:21;6.20;99.90
9668;DHT22;4872;48.316;10.650;2022-11-22T06:44:49;6.20;99.90
9668;DHT22;4872;48.316;10.650;2022-11-22T06:47:16;6.20;99.90
9668;DHT22;4872;48.316;10.650;2022-11-22T06:49:43;6.20;99.90
9668;DHT22;4872;48.316;10.650;2022-11-22T06:52:10;6.20;99.90
9668;DHT22;4872;48.316;10.650;2022-11-22T06:54:37;6.20;99.90
9668;DHT22;4872;48.316;10.650;2022-11-22T06:57:04;6.20;99.90
9668;DHT22;4872;48.316;10.650;2022-11-22T06:59:30;6.20;99.90
9668;DHT22;4872;48.316;10.650;2022-11-22T07:01:59;6.10;99.90
9668;DHT22;4872;48.316;10.650;2022-11-22T07:04:25;6.20;99.90
9668;DHT22;4872;48.316;10.650;2022-11-22T07:06:52;6.20;99.90
9668;DHT22;4872;48.316;10.650;2022-11-22T07:09:19;6.20;99.90
9668;DHT22;4872;48.316;10.650;2022-11-22T07:11:46;6.20;99.90
9668;DHT22;4872;48.316;10.650;2022-11-22T07:14:13;6.10;99.90
9668;DHT22;4872;48.316;10.650;2022-11-22T07:16:39;6.20;99.90
9668;DHT22;4872;48.316;10.650;2022-11-22T07:19:08;6.20;99.90
9668;DHT22;4872;48.316;10.650;2022-11-22T07:21:35;6.20;99.90
9668;DHT22;4872;48.316;10.650;2022-11-22T07:24:04;6.30;99.90
9668;DHT22;4872;48.316;10.650;2022-11-22T07:26:31;6.10;99.90
9668;DHT22;4872;48.316;10.650;2022-11-22T07:28:58;6.20;99.90
9668;DHT22;4872;48.316;10.650;2022-11-22T07:31:24;6.20;99.90
9668;DHT22;4872;48.316;10.650;2022-11-22T07:33:51;6.20;99.90
9668;DHT22;4872;48.316;10.650;2022-11-22T07:36:21;6.30;99.90
9668;DHT22;4872;48.316;10.650;2022-11-22T07:38:48;6.30;99.90
9668;DHT22;4872;48.316;10.650;2022-11-22T07:41:16;6.30;99.90
9668;DHT22;4872;48.316;10.650;2022-11-22T07:43:43;6.30;99.90
9668;DHT22;4872;48.316;10.650;2022-11-22T07:46:16;6.30;99.90
9668;DHT22;4872;48.316;10.650;2022-11-22T07:48:46;6.30;99.90
9668;DHT22;4872;48.316;10.650;2022-11-22T07:51:13;6.30;99.90
9668;DHT22;4872;48.316;10.650;2022-11-22T07:53:41;6.40;99.90
9668;DHT22;4872;48.316;10.650;2022-11-22T07:56:08;6.30;99.90
9668;DHT22;4872;48.316;10.650;2022-11-22T07:58:35;6.30;99.90
9668;DHT22;4872;48.316;10.650;2022-11-22T08:01:06;6.30;99.90
9668;DHT22;4872;48.316;10.650;2022-11-22T08:03:33;6.30;99.90
9668;DHT22;4872;48.316;10.650;2022-11-22T08:06:01;6.30;99.90
9668;DHT22;4872;48.316;10.650;2022-11-22T08:08:28;6.40;99.90
9668;DHT22;4872;48.316;10.650;2022-11-22T08:10:56;6.30;99.90
9668;DHT22;4872;48.316;10.650;2022-11-22T08:13:24;6.30;99.90
9668;DHT22;4872;48.316;10.650;2022-11-22T08:15:50;6.30;99.90
9668;DHT22;4872;48.316;10.650;2022-11-22T08:18:17;6.30;99.90
9668;DHT22;4872;48.316;10.650;2022-11-22T08:20:44;6.40;99.90
9668;DHT22;4872;48.316;10.650;2022-11-22T08:23:11;6.40;99.90
9668;DHT22;4872;48.316;10.650;2022-11-22T08:25:38;6.40;99.90
9668;DHT22;4872;48.316;10.650;2022-11-22T08:28:06;6.50;99.90
9668;DHT22;4872;48.316;10.650;2022-11-22T08:30:33;6.50;99.90
9668;DHT22;4872;48.316;10.650;2022-11-22T08:32:59;6.50;99.90
9668;DHT22;4872;48.316;10.650;2022-11-22T08:35:26;6.50;99.90
9668;DHT22;4872;48.316;10.650;2022-11-22T08:37:56;6.40;99.90
9668;DHT22;4872;48.316;10.650;2022-11-22T08:40:23;6.50;99.90
9668;DHT22;4872;48.316;10.650;2022-11-22T08:42:52;6.70;99.90
9668;DHT22;4872;48.316;10.650;2022-11-22T08:45:21;6.60;99.90
9668;DHT22;4872;48.316;10.650;2022-11-22T08:47:48;6.60;99.90
9668;DHT22;4872;48.316;10.650;2022-11-22T08:50:16;6.70;99.90
9668;DHT22;4872;48.316;10.650;2022-11-22T08:52:43;6.70;99.90
9668;DHT22;4872;48.316;10.650;2022-11-22T08:55:11;6.70;99.90
9668;DHT22;4872;48.316;10.650;2022-11-22T08:57:38;6.80;99.90
9668;DHT22;4872;48.316;10.650;2022-11-22T09:00:06;6.80;99.90
9668;DHT22;4872;48.316;10.650;2022-11-22T09:02:34;6.80;99.90
9668;DHT22;4872;48.316;10.650;2022-11-22T09:05:01;7.00;99.90
9668;DHT22;4872;48.316;10.650;2022-11-22T09:07:28;7.00;99.90
9668;DHT22;4872;48.316;10.650;2022-11-22T09:09:55;7.10;99.90
9668;DHT22;4872;48.316;10.650;2022-11-22T09:12:22;7.10;99.90
9668;DHT22;4872;48.316;10.650;2022-11-22T09:14:49;7.10;99.90
9668;DHT22;4872;48.316;10.650;2022-11-22T09:17:16;7.10;99.90
9668;DHT22;4872;48.316;10.650;2022-11-22T09:19:44;7.10;99.90
9668;DHT22;4872;48.316;10.650;2022-11-22T09:22:11;7.20;99.90
9668;DHT22;4872;48.316;10.650;2022-11-22T09:24:37;7.20;99.90
9668;DHT22;4872;48.316;10.650;2022-11-22T09:27:04;7.20;99.90
9668;DHT22;4872;48.316;10.650;2022-11-22T09:29:31;7.20;99.90
9668;DHT22;4872;48.316;10.650;2022-11-22T09:31:58;7.20;99.90
9668;DHT22;4872;48.316;10.650;2022-11-22T09:34:25;7.30;99.90
9668;DHT22;4872;48.316;10.650;2022-11-22T09:36:53;7.30;99.90
9668;DHT22;4872;48.316;10.650;2022-11-22T09:39:20;7.30;99.90
9668;DHT22;4872;48.316;10.650;2022-11-22T09:42:02;7.30;99.90
9668;DHT22;4872;48.316;10.650;2022-11-22T09:44:42;7.30;99.90
9668;DHT22;4872;48.316;10.650;2022-11-22T09:47:20;7.30;99.90
9668;DHT22;4872;48.316;10.650;2022-11-22T09:49:57;7.30;99.90
9668;DHT22;4872;48.316;10.650;2022-11-22T09:52:32;7.30;99.90
9668;DHT22;4872;48.316;10.650;2022-11-22T09:55:05;7.30;99.90
9668;DHT22;4872;48.316;10.650;2022-11-22T09:57:38;7.30;99.90
9668;DHT22;4872;48.316;10.650;2022-11-22T10:00:14;7.30;99.90
9668;DHT22;4872;48.316;10.650;2022-11-22T10:02:48;7.30;99.90
9668;DHT22;4872;48.316;10.650;2022-11-22T10:05:23;7.50;99.90
9668;DHT22;4872;48.316;10.650;2022-11-22T10:07:56;7.30;99.90
9668;DHT22;4872;48.316;10.650;2022-11-22T10:10:31;7.40;99.90
9668;DHT22;4872;48.316;10.650;2022-11-22T10:13:02;7.40;99.90
9668;DHT22;4872;48.316;10.650;2022-11-22T10:15:36;7.30;99.90
9668;DHT22;4872;48.316;10.650;2022-11-22T10:18:10;7.40;99.90
9668;DHT22;4872;48.316;10.650;2022-11-22T10:20:40;7.40;99.90
9668;DHT22;4872;48.316;10.650;2022-11-22T10:23:15;7.40;99.90
9668;DHT22;4872;48.316;10.650;2022-11-22T10:25:44;7.40;99.90
9668;DHT22;4872;48.316;10.650;2022-11-22T10:28:16;7.40;99.90
9668;DHT22;4872;48.316;10.650;2022-11-22T10:30:50;7.40;99.90
9668;DHT22;4872;48.316;10.650;2022-11-22T10:33:25;7.40;99.90
9668;DHT22;4872;48.316;10.650;2022-11-22T10:36:06;7.40;99.90
9668;DHT22;4872;48.316;10.650;2022-11-22T10:38:47;7.40;99.90
9668;DHT22;4872;48.316;10.650;2022-11-22T10:41:27;7.40;99.90
9668;DHT22;4872;48.316;10.650;2022-11-22T10:44:06;7.40;99.90
9668;DHT22;4872;48.316;10.650;2022-11-22T10:46:42;7.50;99.90
9668;DHT22;4872;48.316;10.650;2022-11-22T10:49:19;7.50;99.90
9668;DHT22;4872;48.316;10.650;2022-11-22T10:51:53;7.40;99.90
9668;DHT22;4872;48.316;10.650;2022-11-22T10:54:26;7.50;99.90
9668;DHT22;4872;48.316;10.650;2022-11-22T10:57:02;7.40;99.90
9668;DHT22;4872;48.316;10.650;2022-11-22T10:59:47;7.50;99.90
9668;DHT22;4872;48.316;10.650;2022-11-22T11:02:32;7.50;99.90
9668;DHT22;4872;48.316;10.650;2022-11-22T11:05:04;7.50;99.90
9668;DHT22;4872;48.316;10.650;2022-11-22T11:07:33;7.50;99.90
9668;DHT22;4872;48.316;10.650;2022-11-22T11:10:04;7.60;99.90
9668;DHT22;4872;48.316;10.650;2022-11-22T11:12:45;7.60;99.90
9668;DHT22;4872;48.316;10.650;2022-11-22T11:15:16;7.60;99.90
9668;DHT22;4872;48.316;10.650;2022-11-22T11:17:50;7.70;99.90
9668;DHT22;4872;48.316;10.650;2022-11-22T11:20:22;7.70;99.90
9668;DHT22;4872;48.316;10.650;2022-11-22T11:22:51;7.70;99.90
9668;DHT22;4872;48.316;10.650;2022-11-22T11:25:31;7.70;99.90
9668;DHT22;4872;48.316;10.650;2022-11-22T11:28:01;7.70;99.90
9668;DHT22;4872;48.316;10.650;2022-11-22T11:30:36;7.70;99.90
9668;DHT22;4872;48.316;10.650;2022-11-22T11:33:17;7.70;99.90
9668;DHT22;4872;48.316;10.650;2022-11-22T11:35:45;7.70;99.90
9668;DHT22;4872;48.316;10.650;2022-11-22T11:38:30;7.70;99.90
9668;DHT22;4872;48.316;10.650;2022-11-22T11:41:15;7.70;99.90
9668;DHT22;4872;48.316;10.650;2022-11-22T11:43:44;7.70;99.90
9668;DHT22;4872;48.316;10.650;2022-11-22T11:46:16;7.80;99.90
9668;DHT22;4872;48.316;10.650;2022-11-22T11:48:43;7.80;99.90
9668;DHT22;4872;48.316;10.650;2022-11-22T11:51:23;7.90;99.90
9668;DHT22;4872;48.316;10.650;2022-11-22T11:53:54;7.90;99.90
9668;DHT22;4872;48.316;10.650;2022-11-22T11:59:22;8.00;99.90
9668;DHT22;4872;48.316;10.650;2022-11-22T12:01:56;8.00;99.90
9668;DHT22;4872;48.316;10.650;2022-11-22T12:04:26;7.90;99.90
9668;DHT22;4872;48.316;10.650;2022-11-22T12:07:00;8.00;99.90
9668;DHT22;4872;48.316;10.650;2022-11-22T12:09:33;8.00;99.90
9668;DHT22;4872;48.316;10.650;2022-11-22T12:12:14;8.00;99.90
9668;DHT22;4872;48.316;10.650;2022-11-22T12:14:45;8.00;99.90
9668;DHT22;4872;48.316;10.650;2022-11-22T12:17:21;8.00;99.90
9668;DHT22;4872;48.316;10.650;2022-11-22T12:19:57;8.00;99.90
9668;DHT22;4872;48.316;10.650;2022-11-22T12:22:31;8.00;99.90
9668;DHT22;4872;48.316;10.650;2022-11-22T12:25:14;8.10;99.90
9668;DHT22;4872;48.316;10.650;2022-11-22T12:27:43;8.00;99.90
9668;DHT22;4872;48.316;10.650;2022-11-22T12:30:11;8.00;99.90
9668;DHT22;4872;48.316;10.650;2022-11-22T12:32:41;8.00;99.90
9668;DHT22;4872;48.316;10.650;2022-11-22T12:35:13;8.10;99.90
9668;DHT22;4872;48.316;10.650;2022-11-22T12:37:44;8.00;99.90
9668;DHT22;4872;48.316;10.650;2022-11-22T12:40:16;7.90;99.90
9668;DHT22;4872;48.316;10.650;2022-11-22T12:42:47;7.90;99.90
9668;DHT22;4872;48.316;10.650;2022-11-22T12:45:21;7.90;99.90
9668;DHT22;4872;48.316;10.650;2022-11-22T12:47:50;7.80;99.90
9668;DHT22;4872;48.316;10.650;2022-11-22T12:50:25;7.80;99.90
9668;DHT22;4872;48.316;10.650;2022-11-22T12:52:58;7.70;99.90
9668;DHT22;4872;48.316;10.650;2022-11-22T12:55:28;7.70;99.90
9668;DHT22;4872;48.316;10.650;2022-11-22T12:58:06;7.70;99.90
9668;DHT22;4872;48.316;10.650;2022-11-22T13:00:42;7.70;99.70
9668;DHT22;4872;48.316;10.650;2022-11-22T13:03:16;7.70;99.70
9668;DHT22;4872;48.316;10.650;2022-11-22T13:05:47;7.60;99.50
9668;DHT22;4872;48.316;10.650;2022-11-22T13:08:20;7.60;99.70
9668;DHT22;4872;48.316;10.650;2022-11-22T13:10:52;7.50;99.70
9668;DHT22;4872;48.316;10.650;2022-11-22T13:13:24;7.60;99.80
9668;DHT22;4872;48.316;10.650;2022-11-22T13:15:55;7.50;99.90
9668;DHT22;4872;48.316;10.650;2022-11-22T13:18:28;7.40;99.50
9668;DHT22;4872;48.316;10.650;2022-11-22T13:21:02;7.40;99.10
9668;DHT22;4872;48.316;10.650;2022-11-22T13:23:48;7.40;99.20
9668;DHT22;4872;48.316;10.650;2022-11-22T13:26:23;7.40;99.20
9668;DHT22;4872;48.316;10.650;2022-11-22T13:28:56;7.40;98.80
9668;DHT22;4872;48.316;10.650;2022-11-22T13:31:23;7.50;99.00
9668;DHT22;4872;48.316;10.650;2022-11-22T13:33:52;7.40;98.90
9668;DHT22;4872;48.316;10.650;2022-11-22T13:36:43;7.30;98.70
9668;DHT22;4872;48.316;10.650;2022-11-22T13:39:16;7.30;98.80
9668;DHT22;4872;48.316;10.650;2022-11-22T13:41:52;7.30;98.70
9668;DHT22;4872;48.316;10.650;2022-11-22T13:44:52;7.20;98.30
9668;DHT22;4872;48.316;10.650;2022-11-22T13:47:39;7.20;97.90
9668;DHT22;4872;48.316;10.650;2022-11-22T13:53:27;7.20;97.40
9668;DHT22;4872;48.316;10.650;2022-11-22T13:55:56;7.20;97.40
9668;DHT22;4872;48.316;10.650;2022-11-22T13:58:51;7.20;97.30
9668;DHT22;4872;48.316;10.650;2022-11-22T14:01:55;7.10;97.30
9668;DHT22;4872;48.316;10.650;2022-11-22T14:04:38;7.10;97.40
9668;DHT22;4872;48.316;10.650;2022-11-22T14:07:21;7.20;97.30
9668;DHT22;4872;48.316;10.650;2022-11-22T14:09:56;7.10;97.40
9668;DHT22;4872;48.316;10.650;2022-11-22T14:12:50;7.10;97.60
9668;DHT22;4872;48.316;10.650;2022-11-22T14:15:27;7.10;97.40
9668;DHT22;4872;48.316;10.650;2022-11-22T14:18:08;7.00;97.40
9668;DHT22;4872;48.316;10.650;2022-11-22T14:20:43;7.00;97.40
9668;DHT22;4872;48.316;10.650;2022-11-22T14:23:20;6.90;97.40
9668;DHT22;4872;48.316;10.650;2022-11-22T14:26:07;6.90;97.40
9668;DHT22;4872;48.316;10.650;2022-11-22T14:31:34;6.90;97.40
9668;DHT22;4872;48.316;10.650;2022-11-22T14:34:20;6.90;97.40
9668;DHT22;4872;48.316;10.650;2022-11-22T14:40:16;6.90;97.50
9668;DHT22;4872;48.316;10.650;2022-11-22T14:42:53;6.80;97.50
9668;DHT22;4872;48.316;10.650;2022-11-22T14:45:26;6.80;97.60
9668;DHT22;4872;48.316;10.650;2022-11-22T14:48:09;6.80;97.70
9668;DHT22;4872;48.316;10.650;2022-11-22T14:50:42;6.80;97.70
9668;DHT22;4872;48.316;10.650;2022-11-22T14:53:19;6.80;97.80
9668;DHT22;4872;48.316;10.650;2022-11-22T14:55:47;6.70;97.80
9668;DHT22;4872;48.316;10.650;2022-11-22T14:58:22;6.70;98.00
9668;DHT22;4872;48.316;10.650;2022-11-22T15:01:10;6.70;98.10
9668;DHT22;4872;48.316;10.650;2022-11-22T15:04:05;6.70;98.20
9668;DHT22;4872;48.316;10.650;2022-11-22T15:06:42;6.70;98.30
9668;DHT22;4872;48.316;10.650;2022-11-22T15:09:40;6.60;98.40
9668;DHT22;4872;48.316;10.650;2022-11-22T15:12:26;6.60;98.60
9668;DHT22;4872;48.316;10.650;2022-11-22T15:15:13;6.50;98.60
9668;DHT22;4872;48.316;10.650;2022-11-22T15:17:41;6.50;98.70
9668;DHT22;4872;48.316;10.650;2022-11-22T15:20:29;6.50;98.80
9668;DHT22;4872;48.316;10.650;2022-11-22T15:23:03;6.50;98.80
9668;DHT22;4872;48.316;10.650;2022-11-22T15:25:31;6.50;98.90
9668;DHT22;4872;48.316;10.650;2022-11-22T15:27:57;6.50;99.00
9668;DHT22;4872;48.316;10.650;2022-11-22T15:30:25;6.50;99.00
9668;DHT22;4872;48.316;10.650;2022-11-22T15:32:53;6.40;99.00
9668;DHT22;4872;48.316;10.650;2022-11-22T15:35:21;6.40;99.10
9668;DHT22;4872;48.316;10.650;2022-11-22T15:37:52;6.30;99.20
9668;DHT22;4872;48.316;10.650;2022-11-22T15:40:22;6.40;99.40
9668;DHT22;4872;48.316;10.650;2022-11-22T15:42:51;6.40;99.50
9668;DHT22;4872;48.316;10.650;2022-11-22T15:45:20;6.40;99.60
9668;DHT22;4872;48.316;10.650;2022-11-22T15:47:52;6.40;99.80
9668;DHT22;4872;48.316;10.650;2022-11-22T15:50:20;6.30;99.90
9668;DHT22;4872;48.316;10.650;2022-11-22T15:52:49;6.30;99.90
9668;DHT22;4872;48.316;10.650;2022-11-22T15:55:18;6.30;99.90
9668;DHT22;4872;48.316;10.650;2022-11-22T15:57:48;6.30;99.90
9668;DHT22;4872;48.316;10.650;2022-11-22T16:00:21;6.20;99.90
9668;DHT22;4872;48.316;10.650;2022-11-22T16:02:50;6.20;99.90
9668;DHT22;4872;48.316;10.650;2022-11-22T16:05:25;6.20;99.90
9668;DHT22;4872;48.316;10.650;2022-11-22T16:07:54;6.20;99.90
9668;DHT22;4872;48.316;10.650;2022-11-22T16:10:24;6.30;99.90
9668;DHT22;4872;48.316;10.650;2022-11-22T16:12:53;6.20;99.90
9668;DHT22;4872;48.316;10.650;2022-11-22T16:15:26;6.20;99.90
9668;DHT22;4872;48.316;10.650;2022-11-22T16:18:04;6.10;99.90
9668;DHT22;4872;48.316;10.650;2022-11-22T16:20:33;6.10;99.90
9668;DHT22;4872;48.316;10.650;2022-11-22T16:23:12;6.20;99.90
9668;DHT22;4872;48.316;10.650;2022-11-22T16:25:40;6.10;99.90
9668;DHT22;4872;48.316;10.650;2022-11-22T16:28:24;6.10;99.90
9668;DHT22;4872;48.316;10.650;2022-11-22T16:30:53;6.10;99.90
9668;DHT22;4872;48.316;10.650;2022-11-22T16:33:20;6.10;99.90
9668;DHT22;4872;48.316;10.650;2022-11-22T16:35:51;6.10;99.90
9668;DHT22;4872;48.316;10.650;2022-11-22T16:38:19;6.10;99.90
9668;DHT22;4872;48.316;10.650;2022-11-22T16:40:46;6.10;99.90
9668;DHT22;4872;48.316;10.650;2022-11-22T16:43:15;6.10;99.90
9668;DHT22;4872;48.316;10.650;2022-11-22T16:45:43;6.20;99.90
9668;DHT22;4872;48.316;10.650;2022-11-22T16:48:13;6.00;99.90
9668;DHT22;4872;48.316;10.650;2022-11-22T16:50:41;6.00;99.90
9668;DHT22;4872;48.316;10.650;2022-11-22T16:53:10;6.00;99.90
9668;DHT22;4872;48.316;10.650;2022-11-22T16:55:38;6.00;99.90
9668;DHT22;4872;48.316;10.650;2022-11-22T16:58:16;6.00;99.90
9668;DHT22;4872;48.316;10.650;2022-11-22T17:00:44;6.00;99.90
9668;DHT22;4872;48.316;10.650;2022-11-22T17:03:14;6.00;99.90
9668;DHT22;4872;48.316;10.650;2022-11-22T17:05:42;6.00;99.90
9668;DHT22;4872;48.316;10.650;2022-11-22T17:08:11;6.10;99.90
9668;DHT22;4872;48.316;10.650;2022-11-22T17:10:41;6.00;99.90
9668;DHT22;4872;48.316;10.650;2022-11-22T17:13:17;6.00;99.90
9668;DHT22;4872;48.316;10.650;2022-11-22T17:15:44;6.20;99.90
9668;DHT22;4872;48.316;10.650;2022-11-22T17:18:12;6.00;99.90
9668;DHT22;4872;48.316;10.650;2022-11-22T17:20:39;6.00;99.90
9668;DHT22;4872;48.316;10.650;2022-11-22T17:23:11;6.00;99.90
9668;DHT22;4872;48.316;10.650;2022-11-22T17:25:38;6.00;99.90
9668;DHT22;4872;48.316;10.650;2022-11-22T17:28:05;6.00;99.90
9668;DHT22;4872;48.316;10.650;2022-11-22T17:30:33;5.90;99.90
9668;DHT22;4872;48.316;10.650;2022-11-22T17:33:00;6.20;99.90
9668;DHT22;4872;48.316;10.650;2022-11-22T17:35:27;5.90;99.90
9668;DHT22;4872;48.316;10.650;2022-11-22T17:37:54;6.00;99.90
9668;DHT22;4872;48.316;10.650;2022-11-22T17:40:20;6.00;99.90
9668;DHT22;4872;48.316;10.650;2022-11-22T17:42:47;6.00;99.90
9668;DHT22;4872;48.316;10.650;2022-11-22T17:45:14;6.00;99.90
9668;DHT22;4872;48.316;10.650;2022-11-22T17:47:42;6.00;99.90
9668;DHT22;4872;48.316;10.650;2022-11-22T17:50:09;6.00;99.90
9668;DHT22;4872;48.316;10.650;2022-11-22T17:52:37;5.90;99.90
9668;DHT22;4872;48.316;10.650;2022-11-22T17:55:04;5.90;99.90
9668;DHT22;4872;48.316;10.650;2022-11-22T17:57:31;5.90;99.90
9668;DHT22;4872;48.316;10.650;2022-11-22T18:00:00;5.90;99.90
9668;DHT22;4872;48.316;10.650;2022-11-22T18:02:27;6.00;99.90
9668;DHT22;4872;48.316;10.650;2022-11-22T18:04:55;6.00;99.90
9668;DHT22;4872;48.316;10.650;2022-11-22T18:07:22;6.00;99.90
9668;DHT22;4872;48.316;10.650;2022-11-22T18:09:52;6.00;99.90
9668;DHT22;4872;48.316;10.650;2022-11-22T18:12:19;6.00;99.90
9668;DHT22;4872;48.316;10.650;2022-11-22T18:14:46;6.10;99.90
9668;DHT22;4872;48.316;10.650;2022-11-22T18:17:13;6.10;99.90
9668;DHT22;4872;48.316;10.650;2022-11-22T18:19:40;6.20;99.90
9668;DHT22;4872;48.316;10.650;2022-11-22T18:22:09;6.00;99.90
9668;DHT22;4872;48.316;10.650;2022-11-22T18:24:36;6.10;99.90
9668;DHT22;4872;48.316;10.650;2022-11-22T18:27:03;6.00;99.90
9668;DHT22;4872;48.316;10.650;2022-11-22T18:29:29;6.10;99.90
9668;DHT22;4872;48.316;10.650;2022-11-22T18:31:56;6.20;99.90
9668;DHT22;4872;48.316;10.650;2022-11-22T18:34:24;6.10;99.90
9668;DHT22;4872;48.316;10.650;2022-11-22T18:36:51;6.20;99.90
9668;DHT22;4872;48.316;10.650;2022-11-22T18:39:19;6.20;99.90
9668;DHT22;4872;48.316;10.650;2022-11-22T18:41:47;6.20;99.90
9668;DHT22;4872;48.316;10.650;2022-11-22T18:44:14;6.10;99.90
9668;DHT22;4872;48.316;10.650;2022-11-22T18:46:41;6.00;99.90
9668;DHT22;4872;48.316;10.650;2022-11-22T18:49:08;6.10;99.90
9668;DHT22;4872;48.316;10.650;2022-11-22T18:51:35;6.10;99.90
9668;DHT22;4872;48.316;10.650;2022-11-22T18:54:02;6.10;99.90
9668;DHT22;4872;48.316;10.650;2022-11-22T18:56:30;6.10;99.90
9668;DHT22;4872;48.316;10.650;2022-11-22T18:59:02;6.10;99.90
9668;DHT22;4872;48.316;10.650;2022-11-22T19:01:30;6.10;99.90
9668;DHT22;4872;48.316;10.650;2022-11-22T19:03:58;6.10;99.90
9668;DHT22;4872;48.316;10.650;2022-11-22T19:06:25;6.00;99.90
9668;DHT22;4872;48.316;10.650;2022-11-22T19:08:52;6.00;99.90
9668;DHT22;4872;48.316;10.650;2022-11-22T19:11:19;6.00;99.90
9668;DHT22;4872;48.316;10.650;2022-11-22T19:13:48;6.00;99.90
9668;DHT22;4872;48.316;10.650;2022-11-22T19:16:16;6.00;99.90
9668;DHT22;4872;48.316;10.650;2022-11-22T19:18:43;6.00;99.90
9668;DHT22;4872;48.316;10.650;2022-11-22T19:21:11;6.00;99.90
9668;DHT22;4872;48.316;10.650;2022-11-22T19:23:39;6.00;99.90
9668;DHT22;4872;48.316;10.650;2022-11-22T19:26:08;6.00;99.90
9668;DHT22;4872;48.316;10.650;2022-11-22T19:28:35;6.00;99.90
9668;DHT22;4872;48.316;10.650;2022-11-22T19:31:05;6.10;99.90
9668;DHT22;4872;48.316;10.650;2022-11-22T19:33:33;6.00;99.90
9668;DHT22;4872;48.316;10.650;2022-11-22T19:36:01;6.10;99.90
9668;DHT22;4872;48.316;10.650;2022-11-22T19:38:28;6.10;99.90
9668;DHT22;4872;48.316;10.650;2022-11-22T19:40:55;6.10;99.90
9668;DHT22;4872;48.316;10.650;2022-11-22T19:43:22;6.10;99.90
9668;DHT22;4872;48.316;10.650;2022-11-22T19:45:49;6.10;99.90
9668;DHT22;4872;48.316;10.650;2022-11-22T19:48:18;6.10;99.90
9668;DHT22;4872;48.316;10.650;2022-11-22T19:50:44;6.10;99.90
9668;DHT22;4872;48.316;10.650;2022-11-22T19:53:11;6.00;99.90
9668;DHT22;4872;48.316;10.650;2022-11-22T19:55:39;6.00;99.90
9668;DHT22;4872;48.316;10.650;2022-11-22T19:58:06;6.00;99.90
9668;DHT22;4872;48.316;10.650;2022-11-22T20:00:33;6.00;99.90
9668;DHT22;4872;48.316;10.650;2022-11-22T20:03:00;6.00;99.90
9668;DHT22;4872;48.316;10.650;2022-11-22T20:05:30;6.00;99.90
9668;DHT22;4872;48.316;10.650;2022-11-22T20:07:57;5.90;99.90
9668;DHT22;4872;48.316;10.650;2022-11-22T20:10:24;5.90;99.90
9668;DHT22;4872;48.316;10.650;2022-11-22T20:12:51;5.90;99.90
9668;DHT22;4872;48.316;10.650;2022-11-22T20:15:18;5.90;99.90
9668;DHT22;4872;48.316;10.650;2022-11-22T20:17:45;5.90;99.90
9668;DHT22;4872;48.316;10.650;2022-11-22T20:20:11;5.80;99.90
9668;DHT22;4872;48.316;10.650;2022-11-22T20:22:40;5.90;99.90
9668;DHT22;4872;48.316;10.650;2022-11-22T20:25:07;5.90;99.90
9668;DHT22;4872;48.316;10.650;2022-11-22T20:27:34;5.90;99.90
9668;DHT22;4872;48.316;10.650;2022-11-22T20:30:01;6.00;99.90
9668;DHT22;4872;48.316;10.650;2022-11-22T20:32:28;6.00;99.90
9668;DHT22;4872;48.316;10.650;2022-11-22T20:34:54;6.00;99.90
9668;DHT22;4872;48.316;10.650;2022-11-22T20:37:21;6.10;99.90
9668;DHT22;4872;48.316;10.650;2022-11-22T20:39:49;6.10;99.90
9668;DHT22;4872;48.316;10.650;2022-11-22T20:42:16;6.20;99.90
9668;DHT22;4872;48.316;10.650;2022-11-22T20:44:43;6.10;99.90
9668;DHT22;4872;48.316;10.650;2022-11-22T20:47:10;6.10;99.90
9668;DHT22;4872;48.316;10.650;2022-11-22T20:49:41;6.10;99.90
9668;DHT22;4872;48.316;10.650;2022-11-22T20:52:11;6.10;99.90
9668;DHT22;4872;48.316;10.650;2022-11-22T20:54:38;6.00;99.90
9668;DHT22;4872;48.316;10.650;2022-11-22T20:57:06;6.00;99.90
9668;DHT22;4872;48.316;10.650;2022-11-22T20:59:32;5.90;99.90
9668;DHT22;4872;48.316;10.650;2022-11-22T21:01:59;5.90;99.90
9668;DHT22;4872;48.316;10.650;2022-11-22T21:04:26;6.00;99.90
9668;DHT22;4872;48.316;10.650;2022-11-22T21:06:53;6.00;99.90
9668;DHT22;4872;48.316;10.650;2022-11-22T21:09:22;6.00;99.90
9668;DHT22;4872;48.316;10.650;2022-11-22T21:11:48;6.00;99.90
9668;DHT22;4872;48.316;10.650;2022-11-22T21:14:17;5.90;99.90
9668;DHT22;4872;48.316;10.650;2022-11-22T21:16:45;5.90;99.90
9668;DHT22;4872;48.316;10.650;2022-11-22T21:19:12;5.90;99.90
9668;DHT22;4872;48.316;10.650;2022-11-22T21:21:40;5.90;99.90
9668;DHT22;4872;48.316;10.650;2022-11-22T21:24:09;5.90;99.90